SASJ/JUJ METAR and TAF weather

Enter ICAO airport designator
Station Type Date Time Source
SASJ METAR 2022/11/27 07:00 UTC NOAA

SASJ 270700Z 30005KT 280V360 CAVOK 20/05 Q1017 RMK PP000


Station Type Date Time Source
SASJ Decoded METAR 2022/11/27 07:00 UTC NOAA

Jujuy Aerodrome, Argentina (SASJ) 24-23S 065-05W 905M
Nov 27, 2022 - 02:00 AM EST / 2022.11.27 0700 UTC
Wind: from the WNW (300 degrees) at 6 MPH (5 KT) (direction variable):0
Visibility: greater than 7 mile(s):0
Temperature: 68 F (20 C)
Dew Point: 41 F (5 C)
Relative Humidity: 37%
Pressure (altimeter): 30.03 in. Hg (1017 hPa)
ob: SASJ 270700Z 30005KT 280V360 CAVOK 20/05 Q1017 RMK PP000
cycle: 7

Station Type Date Time Source
SASJ TAF 2022/11/27 06:07 UTC NOAA

TAF SASJ 270500Z 2706/2806 25005KT CAVOK TX32/2718Z TN19/2710Z
BECMG 2707/2710 34005KT 9999 FEW040
BECMG 2715/2718 05010KT 9999 FEW050TCU
BECMG 2802/2805 27005KT CAVOK

Example: see airport list